Time;durP1;ratioP1;P1;durP2;ratioP2;P2;SDS_P1;SDS_P2;PMS_P1;PMS_P2;Temp;Humidity;BMP_temperature;BMP_pressure;BME280_temperature;BME280_humidity;BME280_pressure;Samples;Min_cycle;Max_cycle;Signal;HPM_P1;HPM_P2
2020/04/11 00:00:47;;;;;;;11.3;10.25;;;;;;;8.31;65.6084;95715.28;;;;
2020/04/11 00:02:06;;;;;;;11.3;10.25;;;;;;;8.31;65.6084;95715.28;;;;
2020/04/11 00:03:15;;;;;;;11.3;10.25;;;;;;;8.31;65.6084;95715.28;;;;
2020/04/11 00:04:17;;;;;;;11.3;10.25;;;;;;;8.31;65.6084;95715.28;;;;
2020/04/11 00:05:18;;;;;;;11.8;10.65;;;;;;;8.32;65.6543;95719.51;;;;
2020/04/11 00:06:23;;;;;;;11.8;10.65;;;;;;;8.32;65.6543;95719.51;;;;
2020/04/11 00:07:23;;;;;;;12.1;10.8;;;;;;;8.3;65.62891;95715.37;;;;
2020/04/11 00:08:52;;;;;;;12.1;10.8;;;;;;;8.3;65.62891;95715.37;;;;
2020/04/11 00:09:54;;;;;;;11.15;10.1;;;;;;;8.25;65.81348;95716.02;;;;
2020/04/11 00:10:55;;;;;;;11.15;10.1;;;;;;;8.25;65.81348;95716.02;;;;
2020/04/11 00:12:09;;;;;;;11.15;10.1;;;;;;;8.25;65.81348;95716.02;;;;
2020/04/11 00:13:12;;;;;;;12.05;10.8;;;;;;;8.19;66.04883;95713.71;;;;
2020/04/11 00:14:14;;;;;;;12.05;10.8;;;;;;;8.19;66.04883;95713.71;;;;
2020/04/11 00:15:47;;;;;;;12.4;10.75;;;;;;;8.16;66.22559;95712.38;;;;
2020/04/11 00:16:54;;;;;;;12.4;10.75;;;;;;;8.16;66.22559;95712.38;;;;
2020/04/11 00:17:54;;;;;;;12.45;11.15;;;;;;;8.12;66.46582;95707.53;;;;
2020/04/11 00:18:56;;;;;;;12.45;11.15;;;;;;;8.12;66.46582;95707.53;;;;
2020/04/11 00:20:03;;;;;;;12.45;11.15;;;;;;;8.12;66.46582;95707.53;;;;
2020/04/11 00:21:04;;;;;;;11.5;10.45;;;;;;;8.09;66.59961;95703.92;;;;
2020/04/11 00:22:10;;;;;;;11.5;10.45;;;;;;;8.09;66.59961;95703.92;;;;
2020/04/11 00:23:12;;;;;;;12.55;11.25;;;;;;;8.06;66.81934;95704.32;;;;
2020/04/11 00:24:12;;;;;;;12.55;11.25;;;;;;;8.06;66.81934;95704.32;;;;
2020/04/11 00:25:17;;;;;;;12.55;11.25;;;;;;;8.06;66.81934;95704.32;;;;
2020/04/11 00:26:18;;;;;;;13.05;10.95;;;;;;;8.04;66.94434;95710.42;;;;
2020/04/11 00:27:20;;;;;;;13.05;10.95;;;;;;;8.04;66.94434;95710.42;;;;
2020/04/11 00:28:20;;;;;;;11.6;10.55;;;;;;;8.02;67.04688;95706.31;;;;
2020/04/11 00:29:22;;;;;;;11.6;10.55;;;;;;;8.02;67.04688;95706.31;;;;
2020/04/11 00:30:23;;;;;;;11.6;10.55;;;;;;;8.02;67.04688;95706.31;;;;
2020/04/11 00:31:24;;;;;;;11.6;10.55;;;;;;;8.02;67.04688;95706.31;;;;
2020/04/11 00:32:44;;;;;;;11.6;10.55;;;;;;;8.02;67.04688;95706.31;;;;
2020/04/11 00:33:47;;;;;;;11.6;10.55;;;;;;;8.02;67.04688;95706.31;;;;
2020/04/11 00:34:54;;;;;;;11.6;10.55;;;;;;;8.02;67.04688;95706.31;;;;
2020/04/11 00:35:56;;;;;;;11.6;10.55;;;;;;;8.02;67.04688;95706.31;;;;
2020/04/11 00:37:04;;;;;;;11.6;10.55;;;;;;;8.02;67.04688;95706.31;;;;
2020/04/11 00:38:10;;;;;;;11.6;10.55;;;;;;;8.02;67.04688;95706.31;;;;
2020/04/11 00:39:10;;;;;;;12.05;10.85;;;;;;;7.52;65.49023;95710.88;;;;
2020/04/11 00:40:30;;;;;;;12.05;10.85;;;;;;;7.52;65.49023;95710.88;;;;
2020/04/11 00:42:04;;;;;;;11.65;10.55;;;;;;;7.48;66.31445;95704.8;;;;
2020/04/11 00:43:07;;;;;;;11.65;10.55;;;;;;;7.48;66.31445;95704.8;;;;
2020/04/11 00:44:18;;;;;;;11.65;10.55;;;;;;;7.48;66.31445;95704.8;;;;
2020/04/11 00:45:29;;;;;;;11.65;10.55;;;;;;;7.48;66.31445;95704.8;;;;
2020/04/11 00:46:30;;;;;;;11.65;10.55;;;;;;;7.48;66.31445;95704.8;;;;
2020/04/11 00:47:30;;;;;;;11.65;10.55;;;;;;;7.48;66.31445;95704.8;;;;
2020/04/11 00:48:47;;;;;;;11.65;10.55;;;;;;;7.48;66.31445;95704.8;;;;
2020/04/11 00:49:52;;;;;;;11.65;10.55;;;;;;;7.48;66.31445;95704.8;;;;
2020/04/11 00:50:53;;;;;;;11.65;10.55;;;;;;;7.48;66.31445;95704.8;;;;
2020/04/11 00:51:54;;;;;;;11.65;10.55;;;;;;;7.48;66.31445;95704.8;;;;
2020/04/11 00:52:56;;;;;;;12.8;10.9;;;;;;;7.16;65.28613;95714.08;;;;
2020/04/11 00:53:57;;;;;;;12.8;10.9;;;;;;;7.16;65.28613;95714.08;;;;
2020/04/11 00:55:00;;;;;;;12.2;11;;;;;;;7.14;66.26172;95711.57;;;;
2020/04/11 00:56:04;;;;;;;12.2;11;;;;;;;7.14;66.26172;95711.57;;;;
2020/04/11 00:57:10;;;;;;;12.2;11;;;;;;;7.14;66.26172;95711.57;;;;
2020/04/11 00:58:11;;;;;;;12.2;11;;;;;;;7.14;66.26172;95711.57;;;;
2020/04/11 00:59:11;;;;;;;12.2;11;;;;;;;7.14;66.26172;95711.57;;;;
2020/04/11 01:00:12;;;;;;;12.2;11;;;;;;;7.14;66.26172;95711.57;;;;
2020/04/11 01:01:30;;;;;;;12.2;11;;;;;;;7.14;66.26172;95711.57;;;;
2020/04/11 01:02:47;;;;;;;12.2;11;;;;;;;7.14;66.26172;95711.57;;;;
2020/04/11 01:03:48;;;;;;;12.2;11;;;;;;;7.14;66.26172;95711.57;;;;
2020/04/11 01:04:55;;;;;;;12.2;11;;;;;;;7.14;66.26172;95711.57;;;;
2020/04/11 01:05:59;;;;;;;11.55;10.35;;;;;;;6.93;65.30469;95710.41;;;;
2020/04/11 01:07:10;;;;;;;11.55;10.35;;;;;;;6.93;65.30469;95710.41;;;;
2020/04/11 01:08:23;;;;;;;11.65;10.45;;;;;;;6.94;66.2832;95710.31;;;;
2020/04/11 01:09:28;;;;;;;11.65;10.45;;;;;;;6.94;66.2832;95710.31;;;;
2020/04/11 01:10:47;;;;;;;12.2;10.9;;;;;;;7;67.03809;95706.8;;;;
2020/04/11 01:11:48;;;;;;;12.2;10.9;;;;;;;7;67.03809;95706.8;;;;
2020/04/11 01:13:01;;;;;;;12.2;10.9;;;;;;;7;67.03809;95706.8;;;;
2020/04/11 01:14:44;;;;;;;13.05;11.35;;;;;;;7.05;67.58984;95711.88;;;;
2020/04/11 01:15:58;;;;;;;12.1;10.85;;;;;;;7.1;67.94629;95713.95;;;;
2020/04/11 01:17:04;;;;;;;12.1;10.85;;;;;;;7.1;67.94629;95713.95;;;;
2020/04/11 01:18:08;;;;;;;12.1;10.85;;;;;;;7.1;67.94629;95713.95;;;;
2020/04/11 01:19:22;;;;;;;12.15;10.95;;;;;;;7.13;68.32617;95719.75;;;;
2020/04/11 01:20:33;;;;;;;12.15;10.95;;;;;;;7.13;68.32617;95719.75;;;;
2020/04/11 01:21:39;;;;;;;12.15;10.95;;;;;;;7.13;68.32617;95719.75;;;;
2020/04/11 01:22:46;;;;;;;12.15;10.95;;;;;;;7.13;68.32617;95719.75;;;;
2020/04/11 01:23:47;;;;;;;12.15;10.95;;;;;;;7.13;68.32617;95719.75;;;;
2020/04/11 01:24:48;;;;;;;12.15;10.95;;;;;;;7.13;68.32617;95719.75;;;;
2020/04/11 01:25:52;;;;;;;12.15;10.95;;;;;;;7.13;68.32617;95719.75;;;;
2020/04/11 01:26:54;;;;;;;12.15;10.95;;;;;;;7.13;68.32617;95719.75;;;;
2020/04/11 01:27:59;;;;;;;12.15;10.95;;;;;;;7.13;68.32617;95719.75;;;;
2020/04/11 01:29:07;;;;;;;12.15;10.95;;;;;;;6.8;66.74219;95726.08;;;;
2020/04/11 01:30:12;;;;;;;12.15;10.95;;;;;;;6.8;66.74219;95726.08;;;;
2020/04/11 01:31:33;;;;;;;12.15;10.95;;;;;;;6.8;66.74219;95726.08;;;;
2020/04/11 01:32:57;;;;;;;11.95;10.85;;;;;;;6.77;67.71484;95732.65;;;;
2020/04/11 01:34:03;;;;;;;11.95;10.85;;;;;;;6.77;67.71484;95732.65;;;;
2020/04/11 01:35:05;;;;;;;11.95;10.85;;;;;;;6.77;67.71484;95732.65;;;;
2020/04/11 01:36:16;;;;;;;11.95;10.85;;;;;;;6.77;67.71484;95732.65;;;;
2020/04/11 01:37:32;;;;;;;11.95;10.85;;;;;;;6.77;67.71484;95732.65;;;;
2020/04/11 01:38:37;;;;;;;11.95;10.85;;;;;;;6.77;67.71484;95732.65;;;;
2020/04/11 01:39:43;;;;;;;11.95;10.85;;;;;;;6.77;67.71484;95732.65;;;;
2020/04/11 01:40:48;;;;;;;11.95;10.85;;;;;;;6.77;67.71484;95732.65;;;;
2020/04/11 01:41:54;;;;;;;11.95;10.85;;;;;;;6.77;67.71484;95732.65;;;;
2020/04/11 01:42:56;;;;;;;12.45;11.15;;;;;;;6.55;66.81934;95722.27;;;;
2020/04/11 01:44:05;;;;;;;12.45;11.15;;;;;;;6.55;66.81934;95722.27;;;;
2020/04/11 01:45:10;;;;;;;12.8;11.5;;;;;;;6.56;67.8418;95722.49;;;;
2020/04/11 01:47:17;;;;;;;12.8;11.5;;;;;;;6.56;67.8418;95722.49;;;;
2020/04/11 01:48:21;;;;;;;13.05;11.65;;;;;;;6.63;68.5957;95726.51;;;;
2020/04/11 01:50:05;;;;;;;13.05;11.65;;;;;;;6.63;68.5957;95726.51;;;;
2020/04/11 01:51:22;;;;;;;12.75;11.45;;;;;;;6.68;69.2002;95731.18;;;;
2020/04/11 01:52:27;;;;;;;12.75;11.45;;;;;;;6.68;69.2002;95731.18;;;;
2020/04/11 01:53:32;;;;;;;12.25;11.05;;;;;;;6.73;69.65332;95737.3;;;;
2020/04/11 01:54:35;;;;;;;12.25;11.05;;;;;;;6.73;69.65332;95737.3;;;;
2020/04/11 01:55:39;;;;;;;12.25;11.05;;;;;;;6.73;69.65332;95737.3;;;;
2020/04/11 01:56:43;;;;;;;12.25;11.05;;;;;;;6.73;69.65332;95737.3;;;;
2020/04/11 01:57:48;;;;;;;12.25;11.05;;;;;;;6.73;69.65332;95737.3;;;;
2020/04/11 01:58:49;;;;;;;12.25;11.05;;;;;;;6.73;69.65332;95737.3;;;;
2020/04/11 01:59:52;;;;;;;12.25;11.05;;;;;;;6.73;69.65332;95737.3;;;;
2020/04/11 02:01:10;;;;;;;12.25;11.05;;;;;;;6.73;69.65332;95737.3;;;;
2020/04/11 02:03:34;;;;;;;12.25;11.05;;;;;;;6.73;69.65332;95737.3;;;;
2020/04/11 02:10:08;;;;;;;12.25;11.05;;;;;;;6.73;69.65332;95737.3;;;;
2020/04/11 02:19:31;;;;;;;12;10.8;;;;;;;6.45;68.34473;95742.33;;;;
2020/04/11 02:25:40;;;;;;;12;10.8;;;;;;;6.45;68.34473;95742.33;;;;
2020/04/11 02:35:03;;;;;;;12.25;10.25;;;;;;;6.55;68.34863;95752.58;;;;
2020/04/11 02:44:26;;;;;;;11.35;10.1;;;;;;;6.57;67.25977;95746.92;;;;
2020/04/11 02:53:49;;;;;;;11.35;10.1;;;;;;;6.57;67.25977;95746.92;;;;
2020/04/11 03:03:13;;;;;;;12.6;10.5;;;;;;;6.61;68.21094;95743.75;;;;
2020/04/11 03:12:36;;;;;;;11.45;10.3;;;;;;;6.4;68.71973;95741.6;;;;
2020/04/11 03:16:10;;;;;;;11.45;10.3;;;;;;;6.4;68.71973;95741.6;;;;
2020/04/11 03:17:14;;;;;;;11.45;10.3;;;;;;;6.4;68.71973;95741.6;;;;
2020/04/11 03:18:27;;;;;;;11.45;10.3;;;;;;;6.4;68.71973;95741.6;;;;
2020/04/11 03:19:41;;;;;;;11.45;10.3;;;;;;;6.4;68.71973;95741.6;;;;
2020/04/11 03:21:00;;;;;;;11.25;10.05;;;;;;;6.31;68.09961;95733.91;;;;
2020/04/11 03:22:09;;;;;;;11.25;10.05;;;;;;;6.31;68.09961;95733.91;;;;
2020/04/11 03:23:20;;;;;;;10.8;9.699999;;;;;;;6.37;69.10645;95733.09;;;;
2020/04/11 03:24:29;;;;;;;10.8;9.699999;;;;;;;6.37;69.10645;95733.09;;;;
2020/04/11 03:25:36;;;;;;;10.8;9.699999;;;;;;;6.37;69.10645;95733.09;;;;
2020/04/11 03:26:48;;;;;;;10.8;9.699999;;;;;;;6.37;69.10645;95733.09;;;;
2020/04/11 03:27:58;;;;;;;10.8;9.699999;;;;;;;6.37;69.10645;95733.09;;;;
2020/04/11 03:29:12;;;;;;;10.8;9.699999;;;;;;;6.37;69.10645;95733.09;;;;
2020/04/11 03:30:36;;;;;;;10.8;9.699999;;;;;;;6.37;69.10645;95733.09;;;;
2020/04/11 03:31:46;;;;;;;10.8;9.699999;;;;;;;6.37;69.10645;95733.09;;;;
2020/04/11 03:32:59;;;;;;;10.8;9.699999;;;;;;;6.37;69.10645;95733.09;;;;
2020/04/11 03:34:44;;;;;;;11.05;9.849999;;;;;;;6.33;68.0293;95741.13;;;;
2020/04/11 03:35:53;;;;;;;11.05;9.849999;;;;;;;6.33;68.0293;95741.13;;;;
2020/04/11 03:37:08;;;;;;;11.7;9.800001;;;;;;;6.38;69.08594;95740.13;;;;
2020/04/11 03:38:22;;;;;;;11.7;9.800001;;;;;;;6.38;69.08594;95740.13;;;;
2020/04/11 03:39:35;;;;;;;11.7;9.800001;;;;;;;6.38;69.08594;95740.13;;;;
2020/04/11 03:40:48;;;;;;;11.7;9.800001;;;;;;;6.38;69.08594;95740.13;;;;
2020/04/11 03:42:00;;;;;;;11.7;9.800001;;;;;;;6.38;69.08594;95740.13;;;;
2020/04/11 03:43:15;;;;;;;11.7;9.800001;;;;;;;6.38;69.08594;95740.13;;;;
2020/04/11 03:44:32;;;;;;;11.7;9.800001;;;;;;;6.38;69.08594;95740.13;;;;
2020/04/11 03:45:54;;;;;;;11.7;9.800001;;;;;;;6.38;69.08594;95740.13;;;;
2020/04/11 03:47:13;;;;;;;11.55;9.9;;;;;;;6.36;68.29785;95736.81;;;;
2020/04/11 03:48:58;;;;;;;11.55;9.9;;;;;;;6.36;68.29785;95736.81;;;;
2020/04/11 03:50:12;;;;;;;10.65;9.550001;;;;;;;6.41;69.27246;95736.54;;;;
2020/04/11 03:51:27;;;;;;;10.65;9.550001;;;;;;;6.41;69.27246;95736.54;;;;
2020/04/11 03:52:40;;;;;;;10.65;9.550001;;;;;;;6.41;69.27246;95736.54;;;;
2020/04/11 03:53:51;;;;;;;10.65;9.550001;;;;;;;6.41;69.27246;95736.54;;;;
2020/04/11 03:55:05;;;;;;;10.65;9.550001;;;;;;;6.41;69.27246;95736.54;;;;
2020/04/11 03:56:21;;;;;;;10.65;9.550001;;;;;;;6.41;69.27246;95736.54;;;;
2020/04/11 03:57:34;;;;;;;10.65;9.550001;;;;;;;6.41;69.27246;95736.54;;;;
2020/04/11 03:58:48;;;;;;;10.65;9.550001;;;;;;;6.41;69.27246;95736.54;;;;
2020/04/11 03:59:59;;;;;;;10.65;9.550001;;;;;;;6.41;69.27246;95736.54;;;;
2020/04/11 04:01:11;;;;;;;10.4;9.4;;;;;;;6.35;68.3916;95740;;;;
2020/04/11 04:02:22;;;;;;;10.4;9.4;;;;;;;6.35;68.3916;95740;;;;
2020/04/11 04:03:33;;;;;;;11.3;10.2;;;;;;;6.38;69.40625;95737.87;;;;
2020/04/11 04:04:42;;;;;;;11.3;10.2;;;;;;;6.38;69.40625;95737.87;;;;
2020/04/11 04:05:55;;;;;;;11.3;10.2;;;;;;;6.38;69.40625;95737.87;;;;
2020/04/11 04:07:09;;;;;;;11.3;10.2;;;;;;;6.38;69.40625;95737.87;;;;
2020/04/11 04:08:21;;;;;;;11.3;10.2;;;;;;;6.38;69.40625;95737.87;;;;
2020/04/11 04:09:33;;;;;;;11.3;10.2;;;;;;;6.38;69.40625;95737.87;;;;
2020/04/11 04:10:46;;;;;;;11.3;10.2;;;;;;;6.38;69.40625;95737.87;;;;
2020/04/11 04:11:55;;;;;;;11.3;10.2;;;;;;;6.38;69.40625;95737.87;;;;
2020/04/11 04:13:05;;;;;;;11.3;10.2;;;;;;;6.38;69.40625;95737.87;;;;
2020/04/11 04:14:20;;;;;;;11.25;9.749999;;;;;;;6.32;68.5791;95743.59;;;;
2020/04/11 04:15:27;;;;;;;11.25;9.749999;;;;;;;6.32;68.5791;95743.59;;;;
2020/04/11 04:16:39;;;;;;;11.25;9.749999;;;;;;;6.32;68.5791;95743.59;;;;
2020/04/11 04:17:52;;;;;;;11.25;9.749999;;;;;;;6.32;68.5791;95743.59;;;;
2020/04/11 04:19:04;;;;;;;11.25;9.749999;;;;;;;6.32;68.5791;95743.59;;;;
2020/04/11 04:20:12;;;;;;;11.25;9.749999;;;;;;;6.32;68.5791;95743.59;;;;
2020/04/11 04:21:29;;;;;;;11.25;9.749999;;;;;;;6.32;68.5791;95743.59;;;;
2020/04/11 04:22:47;;;;;;;11.25;9.749999;;;;;;;6.32;68.5791;95743.59;;;;
2020/04/11 04:24:02;;;;;;;11.25;9.749999;;;;;;;6.32;68.5791;95743.59;;;;
2020/04/11 04:25:13;;;;;;;11.25;9.749999;;;;;;;6.32;68.5791;95743.59;;;;
2020/04/11 04:26:26;;;;;;;11.25;9.749999;;;;;;;6.32;68.5791;95743.59;;;;
2020/04/11 04:27:39;;;;;;;11.25;9.749999;;;;;;;6.32;68.5791;95743.59;;;;
2020/04/11 04:28:55;;;;;;;11.25;9.749999;;;;;;;6.32;68.5791;95743.59;;;;
2020/04/11 04:30:07;;;;;;;11.25;9.749999;;;;;;;6.32;68.5791;95743.59;;;;
2020/04/11 04:31:19;;;;;;;11.25;9.749999;;;;;;;6.32;68.5791;95743.59;;;;
2020/04/11 04:32:36;;;;;;;11.25;9.749999;;;;;;;6.32;68.5791;95743.59;;;;
2020/04/11 04:33:47;;;;;;;11.25;9.749999;;;;;;;6.32;68.5791;95743.59;;;;
2020/04/11 04:35:00;;;;;;;11.25;9.749999;;;;;;;6.32;68.5791;95743.59;;;;
2020/04/11 04:36:45;;;;;;;11.25;9.749999;;;;;;;6.32;68.5791;95743.59;;;;
2020/04/11 04:37:59;;;;;;;11.25;9.749999;;;;;;;6.32;68.5791;95743.59;;;;
2020/04/11 04:39:11;;;;;;;11.95;10;;;;;;;6.26;68.25;95752.45;;;;
2020/04/11 04:40:28;;;;;;;11.95;10;;;;;;;6.26;68.25;95752.45;;;;
2020/04/11 04:41:35;;;;;;;11.95;10;;;;;;;6.26;68.25;95752.45;;;;
2020/04/11 04:42:46;;;;;;;11.95;10;;;;;;;6.26;68.25;95752.45;;;;
2020/04/11 04:44:00;;;;;;;11.95;10;;;;;;;6.26;68.25;95752.45;;;;
2020/04/11 04:45:11;;;;;;;11.95;10;;;;;;;6.26;68.25;95752.45;;;;
2020/04/11 04:46:23;;;;;;;11.95;10;;;;;;;6.26;68.25;95752.45;;;;
2020/04/11 04:47:36;;;;;;;11.95;10;;;;;;;6.26;68.25;95752.45;;;;
2020/04/11 04:48:48;;;;;;;11.35;9.850001;;;;;;;6.46;68.05957;95765.05;;;;
2020/04/11 04:49:58;;;;;;;11.35;9.850001;;;;;;;6.46;68.05957;95765.05;;;;
2020/04/11 04:51:07;;;;;;;11.35;9.850001;;;;;;;6.46;68.05957;95765.05;;;;
2020/04/11 04:52:19;;;;;;;11.35;9.850001;;;;;;;6.46;68.05957;95765.05;;;;
2020/04/11 04:53:47;;;;;;;11.35;9.850001;;;;;;;6.46;68.05957;95765.05;;;;
2020/04/11 04:54:58;;;;;;;11.35;9.850001;;;;;;;6.46;68.05957;95765.05;;;;
2020/04/11 04:56:11;;;;;;;11.35;9.850001;;;;;;;6.46;68.05957;95765.05;;;;
2020/04/11 04:57:23;;;;;;;11.35;9.850001;;;;;;;6.46;68.05957;95765.05;;;;
2020/04/11 04:58:39;;;;;;;11.35;9.850001;;;;;;;6.46;68.05957;95765.05;;;;
2020/04/11 04:59:53;;;;;;;10.75;9.649999;;;;;;;6.74;67.61523;95769.3;;;;
2020/04/11 05:01:06;;;;;;;10.75;9.649999;;;;;;;6.74;67.61523;95769.3;;;;
2020/04/11 05:02:17;;;;;;;10.75;9.649999;;;;;;;6.74;67.61523;95769.3;;;;
2020/04/11 05:03:41;;;;;;;10.75;9.649999;;;;;;;6.74;67.61523;95769.3;;;;
2020/04/11 05:04:51;;;;;;;10.75;9.649999;;;;;;;6.74;67.61523;95769.3;;;;
2020/04/11 05:06:02;;;;;;;10.75;9.649999;;;;;;;6.74;67.61523;95769.3;;;;
2020/04/11 05:07:16;;;;;;;10.75;9.649999;;;;;;;6.74;67.61523;95769.3;;;;
2020/04/11 05:08:30;;;;;;;10.75;9.649999;;;;;;;6.74;67.61523;95769.3;;;;
2020/04/11 05:09:43;;;;;;;10.75;9.649999;;;;;;;6.74;67.61523;95769.3;;;;
2020/04/11 05:10:55;;;;;;;11.15;10.05;;;;;;;7.07;67.17773;95776.93;;;;
2020/04/11 05:12:09;;;;;;;11.15;10.05;;;;;;;7.07;67.17773;95776.93;;;;
2020/04/11 05:13:24;;;;;;;11.4;10.2;;;;;;;7.23;68.06445;95778.83;;;;
2020/04/11 05:14:39;;;;;;;11.4;10.2;;;;;;;7.23;68.06445;95778.83;;;;
2020/04/11 05:15:50;;;;;;;11.4;10.2;;;;;;;7.23;68.06445;95778.83;;;;
2020/04/11 05:17:01;;;;;;;11.4;10.2;;;;;;;7.23;68.06445;95778.83;;;;
2020/04/11 05:18:16;;;;;;;11.4;10.2;;;;;;;7.23;68.06445;95778.83;;;;
2020/04/11 05:19:34;;;;;;;11.4;10.2;;;;;;;7.23;68.06445;95778.83;;;;
2020/04/11 05:20:46;;;;;;;11.4;10.2;;;;;;;7.23;68.06445;95778.83;;;;
2020/04/11 05:21:55;;;;;;;11.4;10.2;;;;;;;7.23;68.06445;95778.83;;;;
2020/04/11 05:23:10;;;;;;;11.4;10.2;;;;;;;7.23;68.06445;95778.83;;;;
2020/04/11 05:24:23;;;;;;;11.4;10.2;;;;;;;7.23;68.06445;95778.83;;;;
2020/04/11 05:25:37;;;;;;;11.4;10.2;;;;;;;7.23;68.06445;95778.83;;;;
2020/04/11 05:26:49;;;;;;;11.95;10.25;;;;;;;7.87;67.73828;95783.98;;;;
2020/04/11 05:28:01;;;;;;;11.95;10.25;;;;;;;7.87;67.73828;95783.98;;;;
2020/04/11 05:29:13;;;;;;;11.95;10.25;;;;;;;7.87;67.73828;95783.98;;;;
2020/04/11 05:30:27;;;;;;;11.95;10.25;;;;;;;7.87;67.73828;95783.98;;;;
2020/04/11 05:31:39;;;;;;;11.95;10.25;;;;;;;7.87;67.73828;95783.98;;;;
2020/04/11 05:32:51;;;;;;;11.95;10.25;;;;;;;7.87;67.73828;95783.98;;;;
2020/04/11 05:34:03;;;;;;;11.95;10.25;;;;;;;7.87;67.73828;95783.98;;;;
2020/04/11 05:35:13;;;;;;;11.95;10.25;;;;;;;7.87;67.73828;95783.98;;;;
2020/04/11 05:36:23;;;;;;;11.95;10.25;;;;;;;7.87;67.73828;95783.98;;;;
2020/04/11 05:37:34;;;;;;;11.85;10.55;;;;;;;8.39;66.49609;95790.37;;;;
2020/04/11 05:38:46;;;;;;;11.85;10.55;;;;;;;8.39;66.49609;95790.37;;;;
2020/04/11 05:39:56;;;;;;;12.25;10.95;;;;;;;8.58;67.30371;95801.2;;;;
2020/04/11 05:41:04;;;;;;;12.25;10.95;;;;;;;8.58;67.30371;95801.2;;;;
2020/04/11 05:42:19;;;;;;;12.25;10.95;;;;;;;8.58;67.30371;95801.2;;;;
2020/04/11 05:43:42;;;;;;;12.25;10.95;;;;;;;8.58;67.30371;95801.2;;;;
2020/04/11 05:44:54;;;;;;;12.25;10.95;;;;;;;8.58;67.30371;95801.2;;;;
2020/04/11 05:46:10;;;;;;;12.25;10.95;;;;;;;8.58;67.30371;95801.2;;;;
2020/04/11 05:47:22;;;;;;;12.25;10.95;;;;;;;8.58;67.30371;95801.2;;;;
2020/04/11 05:48:35;;;;;;;12.25;10.95;;;;;;;8.58;67.30371;95801.2;;;;
2020/04/11 05:50:42;;;;;;;11.5;10.35;;;;;;;9.17;66.13379;95786.08;;;;
2020/04/11 05:52:02;;;;;;;11.5;10.35;;;;;;;9.17;66.13379;95786.08;;;;
2020/04/11 05:53:17;;;;;;;11.5;10.25;;;;;;;9.39;66.61719;95791.85;;;;
2020/04/11 05:54:29;;;;;;;11.5;10.25;;;;;;;9.39;66.61719;95791.85;;;;
2020/04/11 05:55:45;;;;;;;11.5;10.25;;;;;;;9.39;66.61719;95791.85;;;;
2020/04/11 05:56:57;;;;;;;11.5;10.25;;;;;;;9.39;66.61719;95791.85;;;;
2020/04/11 05:58:10;;;;;;;11.5;10.25;;;;;;;9.39;66.61719;95791.85;;;;
2020/04/11 05:59:22;;;;;;;11.5;10.25;;;;;;;9.39;66.61719;95791.85;;;;
2020/04/11 06:00:36;;;;;;;11.5;10.25;;;;;;;9.39;66.61719;95791.85;;;;
2020/04/11 06:01:47;;;;;;;11.5;10.25;;;;;;;9.39;66.61719;95791.85;;;;
2020/04/11 06:03:01;;;;;;;11.5;10.3;;;;;;;10.2;64.88672;95803.53;;;;
2020/04/11 06:08:18;;;;;;;11.85;9.9;;;;;;;10.47;65.03418;95797.78;;;;
2020/04/11 06:09:34;;;;;;;11.65;10.45;;;;;;;10.77;64.79004;95802.79;;;;
2020/04/11 06:10:50;;;;;;;11.65;10.45;;;;;;;10.77;64.79004;95802.79;;;;
2020/04/11 06:12:04;;;;;;;10.75;9.749999;;;;;;;11.06;64.38086;95806.06;;;;
2020/04/11 06:13:18;;;;;;;10.75;9.749999;;;;;;;11.06;64.38086;95806.06;;;;
2020/04/11 06:14:32;;;;;;;11.45;10.3;;;;;;;11.35;63.89746;95802.17;;;;
2020/04/11 06:15:44;;;;;;;11.45;10.3;;;;;;;11.35;63.89746;95802.17;;;;
2020/04/11 06:16:55;;;;;;;11.1;9.899999;;;;;;;11.61;63.49316;95807.76;;;;
2020/04/11 06:18:10;;;;;;;11.1;9.899999;;;;;;;11.61;63.49316;95807.76;;;;
2020/04/11 06:19:24;;;;;;;11.1;9.899999;;;;;;;11.61;63.49316;95807.76;;;;
2020/04/11 06:20:37;;;;;;;11.1;9.899999;;;;;;;11.61;63.49316;95807.76;;;;
2020/04/11 06:21:47;;;;;;;11.1;9.899999;;;;;;;11.61;63.49316;95807.76;;;;
2020/04/11 06:22:59;;;;;;;11.1;9.899999;;;;;;;11.61;63.49316;95807.76;;;;
2020/04/11 06:24:10;;;;;;;11.1;9.899999;;;;;;;11.61;63.49316;95807.76;;;;
2020/04/11 06:25:27;;;;;;;11.1;9.899999;;;;;;;11.61;63.49316;95807.76;;;;
2020/04/11 06:26:38;;;;;;;11.1;9.899999;;;;;;;11.61;63.49316;95807.76;;;;
2020/04/11 06:27:46;;;;;;;11.1;10;;;;;;;12.12;62.11426;95821.61;;;;
2020/04/11 06:28:55;;;;;;;11.1;10;;;;;;;12.12;62.11426;95821.61;;;;
2020/04/11 06:30:07;;;;;;;11.5;10.3;;;;;;;12.41;61.69043;95822.6;;;;
2020/04/11 06:31:18;;;;;;;11.5;10.3;;;;;;;12.41;61.69043;95822.6;;;;
2020/04/11 06:32:26;;;;;;;11.55;10.45;;;;;;;12.82;60.98145;95824.26;;;;
2020/04/11 06:33:34;;;;;;;11.55;10.45;;;;;;;12.82;60.98145;95824.26;;;;
2020/04/11 06:34:42;;;;;;;11.55;10.45;;;;;;;12.82;60.98145;95824.26;;;;
2020/04/11 06:35:49;;;;;;;11.55;9.950001;;;;;;;13.25;60.2627;95832.01;;;;
2020/04/11 06:36:56;;;;;;;11.55;9.950001;;;;;;;13.25;60.2627;95832.01;;;;
2020/04/11 06:38:07;;;;;;;11.5;10.3;;;;;;;13.66;59.20313;95833.65;;;;
2020/04/11 06:39:17;;;;;;;11.5;10.3;;;;;;;13.66;59.20313;95833.65;;;;
2020/04/11 06:40:25;;;;;;;11.25;10.15;;;;;;;14.08;58.17676;95836.38;;;;
2020/04/11 06:41:33;;;;;;;11.25;10.15;;;;;;;14.08;58.17676;95836.38;;;;
2020/04/11 06:42:42;;;;;;;11.55;10.4;;;;;;;14.5;57.15723;95834.16;;;;
2020/04/11 06:43:51;;;;;;;11.55;10.4;;;;;;;14.5;57.15723;95834.16;;;;
2020/04/11 06:44:58;;;;;;;11.55;10.4;;;;;;;14.5;57.15723;95834.16;;;;
2020/04/11 06:46:07;;;;;;;12.25;11.1;;;;;;;14.87;56.21875;95833.39;;;;
2020/04/11 06:47:14;;;;;;;12.25;11.1;;;;;;;14.87;56.21875;95833.39;;;;
2020/04/11 06:48:25;;;;;;;12.3;10.95;;;;;;;15.22;55.30566;95832.67;;;;
2020/04/11 06:49:37;;;;;;;12.3;10.95;;;;;;;15.22;55.30566;95832.67;;;;
2020/04/11 06:50:49;;;;;;;11.55;10.5;;;;;;;15.46;54.7373;95831.8;;;;
2020/04/11 06:52:03;;;;;;;11.55;10.5;;;;;;;15.46;54.7373;95831.8;;;;
2020/04/11 06:53:19;;;;;;;11.85;10.75;;;;;;;15.61;54.29883;95836.47;;;;
2020/04/11 06:54:33;;;;;;;11.85;10.75;;;;;;;15.61;54.29883;95836.47;;;;
2020/04/11 06:55:45;;;;;;;11.85;10.75;;;;;;;15.61;54.29883;95836.47;;;;
2020/04/11 06:56:59;;;;;;;12.1;10.85;;;;;;;15.9;53.81055;95833.03;;;;
2020/04/11 06:58:11;;;;;;;12.1;10.85;;;;;;;15.9;53.81055;95833.03;;;;
2020/04/11 06:59:26;;;;;;;13.8;10.55;;;;;;;16.25;53.08984;95838;;;;
2020/04/11 07:00:45;;;;;;;13.8;10.55;;;;;;;16.25;53.08984;95838;;;;
2020/04/11 07:01:57;;;;;;;12.5;11.2;;;;;;;16.57;52.14551;95833.04;;;;
2020/04/11 07:03:11;;;;;;;12.5;11.2;;;;;;;16.57;52.14551;95833.04;;;;
2020/04/11 07:04:25;;;;;;;12.3;11.2;;;;;;;16.88;51.52637;95839;;;;
2020/04/11 07:05:38;;;;;;;12.3;11.2;;;;;;;16.88;51.52637;95839;;;;
2020/04/11 07:06:59;;;;;;;12.3;11.2;;;;;;;17.16;51.00098;95832.79;;;;
2020/04/11 07:08:10;;;;;;;12.3;11.2;;;;;;;17.16;51.00098;95832.79;;;;
2020/04/11 07:09:23;;;;;;;12.7;11.45;;;;;;;17.43;50.4082;95837.59;;;;
2020/04/11 07:10:34;;;;;;;12.7;11.45;;;;;;;17.43;50.4082;95837.59;;;;
2020/04/11 07:11:47;;;;;;;12.25;11.25;;;;;;;17.65;49.37109;95840.58;;;;
2020/04/11 07:13:04;;;;;;;12.25;11.25;;;;;;;17.65;49.37109;95840.58;;;;
2020/04/11 07:14:17;;;;;;;12.25;11.25;;;;;;;17.65;49.37109;95840.58;;;;
2020/04/11 07:15:32;;;;;;;12;10.9;;;;;;;17.83;49.04102;95844.21;;;;
2020/04/11 07:16:39;;;;;;;12;10.9;;;;;;;17.83;49.04102;95844.21;;;;
2020/04/11 07:17:54;;;;;;;11.85;10.85;;;;;;;17.98;48.76172;95850.16;;;;
2020/04/11 07:19:09;;;;;;;11.85;10.85;;;;;;;17.98;48.76172;95850.16;;;;
2020/04/11 07:20:21;;;;;;;12.85;11.75;;;;;;;18.04;48.3291;95851.42;;;;
2020/04/11 07:21:35;;;;;;;12.85;11.75;;;;;;;18.04;48.3291;95851.42;;;;
2020/04/11 07:22:47;;;;;;;12.5;11.4;;;;;;;18.17;48.04688;95846.78;;;;
2020/04/11 07:23:59;;;;;;;12.5;11.4;;;;;;;18.17;48.04688;95846.78;;;;
2020/04/11 07:25:12;;;;;;;13.35;12.05;;;;;;;18.4;47.68848;95849.43;;;;
2020/04/11 07:30:28;;;;;;;13.35;12.05;;;;;;;18.4;47.68848;95849.43;;;;
2020/04/11 07:31:42;;;;;;;13.45;12;;;;;;;18.75;46.9668;95846.91;;;;
2020/04/11 07:32:55;;;;;;;13.45;12;;;;;;;18.75;46.9668;95846.91;;;;
2020/04/11 07:34:06;;;;;;;13;11.8;;;;;;;18.89;46.79297;95847.62;;;;
2020/04/11 07:35:21;;;;;;;13;11.8;;;;;;;18.89;46.79297;95847.62;;;;
2020/04/11 07:36:33;;;;;;;14.9;11.75;;;;;;;18.97;46.59375;95844.31;;;;
2020/04/11 07:37:44;;;;;;;14.9;11.75;;;;;;;18.97;46.59375;95844.31;;;;
2020/04/11 07:38:57;;;;;;;13.35;11.95;;;;;;;19.04;46.38184;95848.42;;;;
2020/04/11 07:40:06;;;;;;;13.35;11.95;;;;;;;19.04;46.38184;95848.42;;;;
2020/04/11 07:41:14;;;;;;;13.05;11.75;;;;;;;19.13;45.91797;95851.29;;;;
2020/04/11 07:42:29;;;;;;;13.05;11.75;;;;;;;19.13;45.91797;95851.29;;;;
2020/04/11 07:43:42;;;;;;;13;11.8;;;;;;;19.25;45.62109;95849.24;;;;
2020/04/11 07:44:55;;;;;;;13;11.8;;;;;;;19.25;45.62109;95849.24;;;;
2020/04/11 07:46:08;;;;;;;13;11.8;;;;;;;19.25;45.62109;95849.24;;;;
2020/04/11 07:47:22;;;;;;;11.95;10.8;;;;;;;19.41;45.47266;95857.15;;;;
2020/04/11 07:48:34;;;;;;;11.95;10.8;;;;;;;19.41;45.47266;95857.15;;;;
2020/04/11 07:49:44;;;;;;;11.7;10.55;;;;;;;19.66;44.94824;95849.44;;;;
2020/04/11 07:50:54;;;;;;;11.7;10.55;;;;;;;19.66;44.94824;95849.44;;;;
2020/04/11 07:52:03;;;;;;;12;10.8;;;;;;;20.07;43.86328;95860.1;;;;
2020/04/11 07:53:10;;;;;;;12;10.8;;;;;;;20.07;43.86328;95860.1;;;;